La Jolla Heights (636, 617) Station Data

Red Flag Warning: No
Fire Weather Zone: 243
SDGE Region: Beach Cities
Lat/Lon: 32.844/-117.24

Observations

Time Wind Speed/Gust Temp(F) RH Fuel Moist Fuel Temp(F) Dewpt(F) Tmax(F) Tmin(F) Accum Precip 10-min Precip SL Press(mb)
4/30 12:00am 133 2 G 3 66° 33% - - 36° 76.9° 56.1° - - -
4/29 11:50pm 131 3 G 4 65° 36% - - 38° 76.9° 56.1° - - -
4/29 11:40pm 152 2 G 4 65° 38% - - 38° 76.9° 56.1° - - -
4/29 11:30pm 69 0 G 2 65° 40% - - 40° 76.9° 56.1° - - -
4/29 11:20pm 329 0 G 1 65° 39% - - 39° 76.9° 56.1° - - -
4/29 11:10pm 29 1 G 2 65° 40% - - 40° 76.9° 56.1° - - -
4/29 11:00pm 44 1 G 2 65° 40% - - 40° 76.9° 56.1° - - -
4/29 10:50pm 48 2 G 3 64° 42% - - 41° 76.9° 56.1° - - -
4/29 10:40pm 42 2 G 4 64° 43% - - 41° 76.9° 56.1° - - -
4/29 10:30pm 27 2 G 4 64° 43% - - 41° 76.9° 56.1° - - -
4/29 10:20pm 25 2 G 4 65° 43% - - 42° 76.9° 56.1° - - -
4/29 10:10pm 9 3 G 4 65° 43% - - 41° 76.9° 56.1° - - -
4/29 10:00pm 22 3 G 5 64° 43% - - 41° 76.9° 56.1° - - -
4/29 9:50pm 347 3 G 5 64° 45% - - 42° 76.9° 56.1° - - -
4/29 9:40pm 307 4 G 7 64° 46% - - 43° 76.9° 56.1° - - -
4/29 9:30pm 301 5 G 7 64° 47% - - 43° 76.9° 56.1° - - -
4/29 9:20pm 301 5 G 7 64° 48% - - 43° 76.9° 56.1° - - -
4/29 9:10pm 307 5 G 7 64° 46% - - 43° 76.9° 56.1° - - -
4/29 9:00pm 319 6 G 10 64° 45% - - 42° 76.9° 56.1° - - -
4/29 8:50pm 317 6 G 12 64° 46% - - 43° 76.9° 56.1° - - -
4/29 8:40pm 311 6 G 10 64° 46% - - 43° 76.9° 56.1° - - -
4/29 8:30pm 319 6 G 10 64° 45% - - 43° 76.9° 56.1° - - -
4/29 8:20pm 320 5 G 10 65° 45% - - 43° 76.9° 56.1° - - -
4/29 8:10pm 325 6 G 10 65° 45% - - 43° 76.9° 56.1° - - -
4/29 8:00pm 325 6 G 9 65° 52% - - 47° 76.9° 56.1° - - -
4/29 7:50pm 314 5 G 8 65° 55% - - 48° 76.9° 56.1° - - -
4/29 7:40pm 312 6 G 10 65° 58% - - 50° 76.9° 56.1° - - -
4/29 7:30pm 307 7 G 10 66° 56% - - 50° 76.9° 56.1° - - -
4/29 7:20pm 301 7 G 11 66° 53% - - 49° 76.9° 56.1° - - -
4/29 7:10pm 304 7 G 12 67° 48% - - 47° 76.9° 56.1° - - -
4/29 7:00pm 296 5 G 9 68° 46% - - 47° 76.9° 56.1° - - -
4/29 6:50pm 293 8 G 14 68° 43% - - 45° 76.9° 56.1° - - -
4/29 6:40pm 296 7 G 13 69° 45% - - 47° 76.9° 56.1° - - -
4/29 6:30pm 282 6 G 9 69° 48% - - 48° 76.9° 56.1° - - -
4/29 6:20pm 280 6 G 12 68° 51% - - 50° 76.9° 56.1° - - -
4/29 6:10pm 291 7 G 11 68° 52% - - 50° 76.9° 56.1° - - -
4/29 6:00pm 274 8 G 13 69° 51% - - 50° 76.9° 56.1° - - -
4/29 5:50pm 286 9 G 16 69° 46% - - 48° 76.9° 56.1° - - -
4/29 5:40pm 287 9 G 17 70° 43% - - 46° 76.9° 56.1° - - -
4/29 5:30pm 285 9 G 14 70° 42% - - 46° 76.9° 56.1° - - -
4/29 5:20pm 273 8 G 13 70° 43% - - 47° 76.9° 56.1° - - -
4/29 5:10pm 282 9 G 14 70° 42% - - 46° 76.9° 56.1° - - -
4/29 5:00pm 284 9 G 14 71° 38% - - 44° 76.9° 56.1° - - -
4/29 4:50pm 271 10 G 17 70° 41% - - 45° 76.9° 56.1° - - -
4/29 4:40pm 283 11 G 19 70° 38% - - 44° 76.9° 56.1° - - -
4/29 4:30pm 277 11 G 18 72° 32% - - 40° 76.9° 56.1° - - -
4/29 4:20pm 281 11 G 19 73° 23% - - 34° 76.9° 56.1° - - -
4/29 4:10pm 286 11 G 18 72° 26% - - 35° 76.9° 56.1° - - -
4/29 4:00pm 281 11 G 16 72° 26% - - 35° 76.9° 56.1° - - -
4/29 3:50pm 280 11 G 15 73° 25% - - 35° 76.9° 56.1° - - -
4/29 3:40pm 277 10 G 15 73° 26% - - 36° 76.9° 56.1° - - -
4/29 3:30pm 283 10 G 17 72° 26% - - 36° 76.9° 56.1° - - -
4/29 3:20pm 282 11 G 15 72° 27% - - 36° 76.9° 56.1° - - -
4/29 3:10pm 282 11 G 17 72° 26% - - 35° 76.9° 56.1° - - -
4/29 3:00pm 276 11 G 16 72° 27% - - 36° 76.9° 56.1° - - -
4/29 2:50pm 277 11 G 17 71° 29% - - 38° 76.9° 56.1° - - -
4/29 2:40pm 273 11 G 16 71° 31% - - 39° 76.9° 56.1° - - -
4/29 2:30pm 283 11 G 17 71° 32% - - 40° 76.9° 56.1° - - -
4/29 2:20pm 281 11 G 17 71° 33% - - 41° 76.9° 56.1° - - -
4/29 2:10pm 286 11 G 18 72° 30% - - 38° 76.9° 56.1° - - -
4/29 2:00pm 287 11 G 15 71° 31% - - 40° 76.9° 56.1° - - -
4/29 1:50pm 287 12 G 18 71° 33% - - 41° 76.9° 56.1° - - -
4/29 1:40pm 290 11 G 15 71° 32% - - 39° 76.9° 56.1° - - -
4/29 1:30pm 296 12 G 18 72° 32% - - 40° 76.9° 56.1° - - -
4/29 1:20pm 291 10 G 16 74° 28% - - 38° 76.9° 56.1° - - -
4/29 1:10pm 284 10 G 14 75° 23% - - 33° 76.9° 56.1° - - -
4/29 1:00pm 278 9 G 15 75° 18% - - 28° 76.9° 56.1° - - -
4/29 12:50pm 273 9 G 15 76° 13% - - 22° 76.9° 56.1° - - -
4/29 12:40pm 273 8 G 13 75° 12% - - 19° 76.1° 56.1° - - -
4/29 12:30pm 268 9 G 15 74° 12% - - 19° 75.6° 56.1° - - -
4/29 12:20pm 268 8 G 18 75° 13% - - 20° 75.6° 56.1° - - -
4/29 12:10pm 275 9 G 16 74° 13% - - 20° 74.8° 56.1° - - -
4/29 12:00pm 274 8 G 12 74° 14% - - 22° 74.7° 56.1° - - -
4/29 11:50am 285 9 G 13 73° 13% - - 19° 74.2° 56.1° - - -
4/29 11:40am 286 8 G 13 73° 13% - - 19° 74.2° 56.1° - - -
4/29 11:30am 291 9 G 12 72° 13% - - 18° 73.9° 56.1° - - -
4/29 11:20am 291 9 G 13 72° 14% - - 20° 73.9° 56.1° - - -
4/29 11:10am 284 9 G 12 72° 14% - - 19° 73.9° 56.1° - - -
4/29 11:00am 284 9 G 14 71° 16% - - 23° 73.9° 56.1° - - -
4/29 10:50am 287 8 G 14 71° 16% - - 23° 73.9° 56.1° - - -
4/29 10:40am 293 8 G 11 71° 17% - - 23° 73.9° 56.1° - - -
4/29 10:30am 281 7 G 10 71° 17% - - 24° 73.9° 56.1° - - -
4/29 10:20am 285 6 G 10 71° 17% - - 24° 73.9° 56.1° - - -
4/29 10:10am 292 5 G 8 71° 17% - - 24° 73.9° 56.1° - - -
4/29 10:00am 284 5 G 7 70° 18% - - 25° 73.9° 56.1° - - -
4/29 9:50am 288 6 G 8 70° 21% - - 28° 73.9° 56.1° - - -
4/29 9:40am 272 5 G 8 70° 22% - - 30° 73.9° 56.1° - - -
4/29 9:30am 313 3 G 6 72° 22% - - 31° 73.9° 56.1° - - -
4/29 9:20am 297 1 G 3 72° 21% - - 29° 73.9° 56.1° - - -
4/29 9:10am 303 2 G 4 70° 21% - - 29° 72.2° 56.1° - - -
4/29 9:00am 294 2 G 5 69° 27% - - 34° 72.2° 56.1° - - -
4/29 8:50am 293 2 G 4 69° 31% - - 37° 72.2° 56.1° - - -
4/29 8:40am 350 2 G 4 71° 23% - - 31° 72.2° 56.1° - - -
4/29 8:30am 41 3 G 6 70° 20% - - 27° 71° 56.1° - - -
4/29 8:20am 53 3 G 6 69° 19% - - 26° 70.4° 56.1° - - -
4/29 8:10am 48 2 G 5 69° 20% - - 27° 69.6° 56.1° - - -
4/29 8:00am 39 3 G 7 68° 23% - - 29° 68.7° 56.1° - - -
4/29 7:50am 47 3 G 5 67° 20% - - 25° 68.6° 56.1° - - -
4/29 7:40am 55 2 G 4 67° 20% - - 25° 68.6° 56.1° - - -
4/29 7:30am 68 3 G 4 68° 19% - - 24° 68.6° 56.1° - - -
4/29 7:20am 58 2 G 3 68° 18% - - 23° 68.5° 56.1° - - -
4/29 7:10am 40 2 G 4 68° 16% - - 20° 68.4° 56.1° - - -
4/29 7:00am 31 2 G 4 67° 15% - - 19° 68.4° 56.1° - - -
4/29 6:50am 23 2 G 4 68° 14% - - 17° 68.4° 56.1° - - -
4/29 6:40am 17 2 G 4 68° 13% - - 16° 68.4° 56.1° - - -
4/29 6:30am 87 1 G 3 68° 13% - - 16° 68.4° 56.1° - - -
4/29 6:20am 93 2 G 3 67° 14% - - 17° 67.7° 56.1° - - -
4/29 6:10am 64 3 G 4 66° 15% - - 18° 67.2° 56.1° - - -
4/29 6:00am 59 3 G 4 66° 17% - - 20° 66.7° 56.1° - - -
4/29 5:50am 49 3 G 5 65° 19% - - 22° 66.3° 56.1° - - -
4/29 5:40am 52 3 G 6 65° 20% - - 23° 66.3° 56.1° - - -
4/29 5:30am 56 3 G 5 66° 20% - - 23° 66.3° 56.1° - - -
4/29 5:20am 64 3 G 5 65° 23% - - 26° 66.3° 56.1° - - -
4/29 5:10am 50 3 G 6 65° 22% - - 26° 66.3° 56.1° - - -
4/29 5:00am 53 2 G 4 65° 23% - - 27° 66.3° 56.1° - - -
4/29 4:50am 35 3 G 7 65° 23% - - 27° 66.3° 56.1° - - -
4/29 4:40am 24 5 G 8 66° 22% - - 26° 66.3° 56.1° - - -
4/29 4:30am 37 4 G 7 65° 28% - - 31° 65.6° 56.1° - - -
4/29 4:20am 34 5 G 8 64° 31% - - 33° 65.5° 56.1° - - -
4/29 4:10am 33 5 G 7 65° 29% - - 32° 65.5° 56.1° - - -
4/29 4:00am 9 4 G 8 64° 34% - - 35° 65.5° 56.1° - - -
4/29 3:50am 304 3 G 6 62° 49% - - 42° 64.8° 56.1° - - -
4/29 3:40am 301 4 G 7 63° 48% - - 43° 64.8° 56.1° - - -
4/29 3:30am 355 5 G 9 64° 38% - - 38° 64.8° 56.1° - - -
4/29 3:20am 335 4 G 8 63° 48% - - 43° 64.3° 56.1° - - -
4/29 3:10am 293 3 G 5 61° 60% - - 47° 63.4° 56.1° - - -
4/29 3:00am 302 3 G 4 60° 62% - - 47° 63.4° 56.1° - - -
4/29 2:50am 60 1 G 4 62° 57% - - 47° 63.4° 56.1° - - -
4/29 2:40am 122 3 G 6 63° 58% - - 48° 63.4° 56.1° - - -
4/29 2:30am 123 2 G 4 61° 63% - - 48° 62.2° 56.1° - - -
4/29 2:20am 36 1 G 3 60° 65% - - 48° 62.2° 56.1° - - -
4/29 2:10am 349 2 G 3 59° 68% - - 49° 62.2° 56.1° - - -
4/29 2:00am 337 2 G 4 59° 73% - - 51° 62.2° 56.1° - - -
4/29 1:50am 298 2 G 3 59° 80% - - 53° 62.2° 56.1° - - -
4/29 1:40am 289 3 G 4 58° 82% - - 53° 62.2° 56.1° - - -
4/29 1:30am 313 3 G 5 57° 80% - - 51° 62.2° 56.1° - - -
4/29 1:20am 76 2 G 3 57° 82% - - 51° 62.2° 56.1° - - -
4/29 1:10am 97 3 G 4 58° 84% - - 53° 62.2° 57.1° - - -
4/29 1:00am 114 4 G 5 58° 84% - - 53° 62.2° 57.1° - - -
4/29 12:50am 134 5 G 6 58° 83% - - 52° 62.2° 57.1° - - -
4/29 12:40am 103 3 G 5 58° 80% - - 52° 62.2° 57.2° - - -
4/29 12:30am 56 2 G 4 60° 75% - - 52° 62.2° 58.4° - - -
4/29 12:20am 307 2 G 3 61° 68% - - 51° 62.2° 58.4° - - -
4/29 12:10am 246 1 G 2 60° 71% - - 51° 61.2° 58.4° - - -
4/29 12:00am 69 1 G 2 59° 77% - - 52° 68.8° 56.5° - - -
4/28 11:50pm 140 1 G 3 59° 75% - - 51° 68.8° 56.5° - - -
4/28 11:40pm 105 4 G 4 58° 76% - - 50° 68.8° 56.5° - - -
4/28 11:30pm 159 3 G 5 61° 66% - - 50° 68.8° 56.5° - - -
4/28 11:20pm 156 4 G 5 61° 71% - - 51° 68.8° 56.5° - - -
4/28 11:10pm 129 3 G 5 61° 68% - - 51° 68.8° 56.5° - - -
4/28 11:00pm 133 2 G 4 62° 66% - - 50° 68.8° 56.5° - - -
4/28 10:50pm 137 2 G 3 63° 62% - - 50° 68.8° 56.5° - - -
4/28 10:40pm 123 2 G 3 63° 63% - - 50° 68.8° 56.5° - - -
4/28 10:30pm 175 1 G 2 64° 60% - - 50° 68.8° 56.5° - - -
4/28 10:20pm 166 2 G 4 63° 62% - - 50° 68.8° 56.5° - - -
4/28 10:10pm 131 2 G 4 62° 65% - - 51° 68.8° 56.5° - - -
4/28 10:00pm 129 2 G 3 63° 64% - - 51° 68.8° 56.5° - - -
4/28 9:50pm 143 3 G 4 63° 64% - - 51° 68.8° 56.5° - - -
4/28 9:40pm 171 3 G 5 63° 65% - - 51° 68.8° 56.5° - - -
4/28 9:30pm 162 4 G 5 63° 66% - - 51° 68.8° 56.5° - - -
4/28 9:20pm 154 4 G 5 63° 66% - - 51° 68.8° 56.5° - - -
4/28 9:10pm 149 3 G 4 63° 65% - - 51° 68.8° 56.5° - - -
4/28 9:00pm 152 3 G 3 63° 66% - - 51° 68.8° 56.5° - - -
4/28 8:50pm 143 3 G 4 63° 65% - - 51° 68.8° 56.5° - - -
4/28 8:40pm 91 2 G 2 62° 68% - - 51° 68.8° 56.5° - - -
4/28 8:30pm 260 2 G 4 62° 70% - - 52° 68.8° 56.5° - - -
4/28 8:20pm 302 3 G 5 63° 65% - - 51° 68.8° 56.5° - - -
4/28 8:10pm 308 3 G 5 64° 63% - - 51° 68.8° 56.5° - - -
4/28 8:00pm 308 2 G 4 64° 63% - - 51° 68.8° 56.5° - - -
4/28 7:50pm 259 1 G 3 64° 65% - - 52° 68.8° 56.5° - - -
4/28 7:40pm 256 2 G 3 63° 66% - - 52° 68.8° 56.5° - - -
4/28 7:30pm 288 1 G 3 64° 68% - - 53° 68.8° 56.5° - - -
4/28 7:20pm 268 2 G 3 64° 69% - - 54° 68.8° 56.5° - - -
4/28 7:10pm 283 2 G 4 64° 70% - - 54° 68.8° 56.5° - - -
4/28 7:00pm 290 2 G 5 64° 70% - - 54° 68.8° 56.5° - - -
4/28 6:50pm 308 4 G 8 64° 71% - - 54° 68.8° 56.5° - - -
4/28 6:40pm 312 5 G 10 65° 70% - - 55° 68.8° 56.5° - - -
4/28 6:30pm 283 6 G 8 66° 67% - - 54° 68.8° 56.5° - - -
4/28 6:20pm 290 7 G 11 65° 67% - - 54° 68.8° 56.5° - - -
4/28 6:10pm 281 5 G 9 66° 66% - - 54° 68.8° 56.5° - - -
4/28 6:00pm 299 7 G 12 65° 67% - - 54° 68.8° 56.5° - - -